Time;durP1;ratioP1;P1;durP2;ratioP2;P2;SDS_P1;SDS_P2;PMS_P1;PMS_P2;Temp;Humidity;BMP_temperature;BMP_pressure;BME280_temperature;BME280_humidity;BME280_pressure;Samples;Min_cycle;Max_cycle;Signal;HPM_P1;HPM_P2
2021/11/22 06:40:23;;;;;;;26.92;18.40;;;;;;;;;;6112358;23;20025;31
2021/11/22 06:43:58;;;;;;;27.55;18.25;;;;;;;;;;4979503;28;20035;-82
2021/11/22 06:47:03;;;;;;;27.27;19.15;;;;;;;;;;4950770;29;20032;-82
2021/11/22 06:55:42;;;;;;;25.55;17.45;;;;;;;;;;5042017;23;20039;-83
2021/11/22 07:03:08;;;;;;;26.60;18.23;;;;;;;;;;4848862;29;20082;-82
2021/11/22 07:13:30;;;;;;;;;;;;;;;;;;;;;
2021/11/22 07:23:21;;;;;;;;;;;;;;;;;;;;;
2021/11/22 07:33:53;;;;;;;30.35;18.52;;;;;;;;;;4678053;30;20078;-83
2021/11/22 07:37:16;;;;;;;22.90;18.00;;;;;;;;;;4721007;30;20061;-83
2021/11/22 07:44:46;;;;;;;;;;;;;;;;;;;;;
2021/11/22 07:52:14;;;;;;;23.42;17.63;;;;;;;;;;4722699;30;20153;-82
2021/11/22 09:13:57;;;;;;;23.65;18.42;;;;;;;;;;5038557;23;20046;-79
2021/11/22 09:16:27;;;;;;;22.52;18.45;;;;;;;;;;5024213;28;20041;-79
2021/11/22 09:18:58;;;;;;;24.03;18.50;;;;;;;;;;5022044;28;20030;-79
2021/11/22 09:21:24;;;;;;;;;;;;;;;;;;5025470;28;20279;-79
2021/11/22 09:23:51;;;;;;;24.00;18.92;;;;;;;;;;5004386;28;20382;-78
2021/11/22 09:26:18;;;;;;;28.30;19.38;;;;;;;;;;5021490;28;20049;-79
2021/11/22 09:28:45;;;;;;;24.75;19.15;;;;;;;;;;5024536;28;20026;-79
2021/11/22 09:31:11;;;;;;;22.85;18.08;;;;;;;;;;5016815;28;20034;-79
2021/11/22 09:33:37;;;;;;;25.27;18.58;;;;;;;;;;5005592;28;20034;-79
2021/11/22 09:36:03;;;;;;;24.42;18.63;;;;;;;;;;5019470;28;20065;-79
2021/11/22 09:38:28;;;;;;;25.30;20.27;;;;;;;;;;5023295;28;20058;-79
2021/11/22 09:40:56;;;;;;;26.23;19.42;;;;;;;;;;5027118;28;20494;-78
2021/11/22 09:43:22;;;;;;;26.83;19.30;;;;;;;;;;5022884;28;20025;-79
2021/11/22 09:45:47;;;;;;;25.33;19.17;;;;;;;;;;5021144;28;20053;-78
2021/11/22 09:48:14;;;;;;;23.38;18.55;;;;;;;;;;5022006;28;20060;-80
2021/11/22 09:50:40;;;;;;;23.23;18.45;;;;;;;;;;5022974;28;20434;-80
2021/11/22 09:53:06;;;;;;;23.58;18.83;;;;;;;;;;5016514;28;20080;-78
2021/11/22 09:55:33;;;;;;;25.17;18.70;;;;;;;;;;5005801;28;20034;-80
2021/11/22 09:58:01;;;;;;;23.23;18.98;;;;;;;;;;5020176;28;20041;-79
2021/11/22 10:00:57;;;;;;;24.63;18.50;;;;;;;;;;5005722;28;20026;-79
2021/11/22 10:03:24;;;;;;;25.92;18.38;;;;;;;;;;5022100;28;20056;-79
2021/11/22 10:05:59;;;;;;;25.55;19.02;;;;;;;;;;5004538;28;20026;-79
2021/11/22 10:08:25;;;;;;;25.05;18.90;;;;;;;;;;5019811;28;20033;-79
2021/11/22 10:10:57;;;;;;;23.73;18.83;;;;;;;;;;5011102;28;20422;-79
2021/11/22 10:13:24;;;;;;;25.05;19.15;;;;;;;;;;5010820;28;20053;-81
2021/11/22 10:15:54;;;;;;;24.23;19.60;;;;;;;;;;5021864;28;20026;-79
2021/11/22 10:18:24;;;;;;;24.63;18.20;;;;;;;;;;5021479;28;20064;-81
2021/11/22 10:20:51;;;;;;;23.63;18.77;;;;;;;;;;5005272;28;20030;-79
2021/11/22 10:23:22;;;;;;;28.35;22.15;;;;;;;;;;5018917;28;20494;-79
2021/11/22 10:25:48;;;;;;;;;;;;;;;;;;5023535;28;20446;-79
2021/11/22 10:28:13;;;;;;;26.13;19.58;;;;;;;;;;5018321;28;19924;-79
2021/11/22 10:30:55;;;;;;;24.05;19.15;;;;;;;;;;5005085;28;20030;-80
2021/11/22 10:33:24;;;;;;;26.42;20.13;;;;;;;;;;5019934;28;20026;-79
2021/11/22 10:35:53;;;;;;;28.63;20.88;;;;;;;;;;5024263;28;20030;-81
2021/11/22 10:38:32;;;;;;;30.75;22.40;;;;;;;;;;5021962;28;20034;-79
2021/11/22 10:40:59;;;;;;;28.77;21.60;;;;;;;;;;5016773;28;20022;-80
2021/11/22 10:43:43;;;;;;;30.60;21.77;;;;;;;;;;5027178;28;20082;-80
2021/11/22 10:46:11;;;;;;;27.02;21.85;;;;;;;;;;5028534;28;20033;-80
2021/11/22 10:48:41;;;;;;;28.38;21.77;;;;;;;;;;5030482;28;20033;-81
2021/11/22 10:51:14;;;;;;;28.27;20.75;;;;;;;;;;5030818;28;20022;-80
2021/11/22 10:53:46;;;;;;;28.30;20.85;;;;;;;;;;5030046;28;20030;-81
2021/11/22 10:56:17;;;;;;;28.30;20.88;;;;;;;;;;5016136;28;20034;-80
2021/11/22 10:58:48;;;;;;;28.23;21.27;;;;;;;;;;5031231;28;20018;-80
2021/11/22 11:01:37;;;;;;;28.92;21.77;;;;;;;;;;5031083;28;20034;-79
2021/11/22 11:04:25;;;;;;;39.63;28.38;;;;;;;;;;5026176;28;20058;-80
2021/11/22 11:07:07;;;;;;;29.58;22.02;;;;;;;;;;5012380;28;20034;-79
2021/11/22 11:09:39;;;;;;;32.55;23.45;;;;;;;;;;5029780;28;20037;-81
2021/11/22 11:12:19;;;;;;;35.53;25.13;;;;;;;;;;5035100;28;20065;-79
2021/11/22 11:14:53;;;;;;;48.40;38.40;;;;;;;;;;5011125;28;20054;-79
2021/11/22 11:17:34;;;;;;;30.33;23.00;;;;;;;;;;5027497;28;20030;-81
2021/11/22 11:20:13;;;;;;;37.72;27.58;;;;;;;;;;5032532;28;20029;-81
2021/11/22 11:22:40;;;;;;;30.80;22.02;;;;;;;;;;5021887;28;20472;-82
2021/11/22 11:25:12;;;;;;;34.38;25.23;;;;;;;;;;5011831;28;20037;-79
2021/11/22 11:27:43;;;;;;;30.95;23.95;;;;;;;;;;5025469;28;20731;-80
2021/11/22 11:30:13;;;;;;;30.65;22.33;;;;;;;;;;5028324;28;20042;-80
2021/11/22 11:32:39;;;;;;;40.92;28.98;;;;;;;;;;5030936;28;20033;-81
2021/11/22 11:35:15;;;;;;;31.67;24.08;;;;;;;;;;5015237;28;20038;-81
2021/11/22 11:38:25;;;;;;;38.92;28.23;;;;;;;;;;5020762;28;20033;-81
2021/11/22 11:41:25;;;;;;;33.28;23.45;;;;;;;;;;5020529;28;20053;-82
2021/11/22 11:44:30;;;;;;;32.63;24.20;;;;;;;;;;4977675;28;20035;-81
2021/11/22 11:47:14;;;;;;;27.77;21.88;;;;;;;;;;4968826;28;20054;-80
2021/11/22 11:49:39;;;;;;;29.27;21.77;;;;;;;;;;4978969;28;20518;-80
2021/11/22 11:52:24;;;;;;;28.30;21.73;;;;;;;;;;4995189;28;20081;-78
2021/11/22 11:54:57;;;;;;;29.75;22.40;;;;;;;;;;4972638;28;20039;-79
2021/11/22 11:57:32;;;;;;;31.98;23.90;;;;;;;;;;4999258;28;20393;-79
2021/11/22 11:59:57;;;;;;;30.20;23.88;;;;;;;;;;4968050;29;20062;-81
2021/11/22 12:02:34;;;;;;;30.05;22.48;;;;;;;;;;4987375;28;20050;-80
2021/11/22 12:05:11;;;;;;;29.02;22.45;;;;;;;;;;4986696;28;20026;-81
2021/11/22 12:07:40;;;;;;;28.67;21.42;;;;;;;;;;4979005;28;20027;-80
2021/11/22 12:10:08;;;;;;;27.60;21.10;;;;;;;;;;4982703;28;20027;-81
2021/11/22 12:12:52;;;;;;;27.85;21.52;;;;;;;;;;5000276;28;20049;-80
2021/11/22 12:15:27;;;;;;;27.13;20.88;;;;;;;;;;4969901;29;20074;-81
2021/11/22 12:17:56;;;;;;;29.73;22.35;;;;;;;;;;4986600;28;20042;-80
2021/11/22 12:20:22;;;;;;;30.00;23.13;;;;;;;;;;4981152;28;20037;-80
2021/11/22 12:22:52;;;;;;;26.30;20.25;;;;;;;;;;5023939;28;20022;-80
2021/11/22 12:25:42;;;;;;;29.87;21.87;;;;;;;;;;5028399;28;20080;-80
2021/11/22 12:28:41;;;;;;;28.88;21.80;;;;;;;;;;5026089;28;20233;-80
2021/11/22 12:31:16;;;;;;;27.13;21.42;;;;;;;;;;4966438;28;20034;-80
2021/11/22 12:33:49;;;;;;;26.92;20.55;;;;;;;;;;4967548;28;20054;-81
2021/11/22 12:36:18;;;;;;;24.85;20.30;;;;;;;;;;4951844;28;20531;-81
2021/11/22 12:38:43;;;;;;;27.13;21.73;;;;;;;;;;4953225;29;20032;-80
2021/11/22 12:41:11;;;;;;;27.08;20.80;;;;;;;;;;4963788;28;20428;-80
2021/11/22 12:43:41;;;;;;;23.70;19.50;;;;;;;;;;4952295;29;20043;-80
2021/11/22 12:46:10;;;;;;;25.23;19.85;;;;;;;;;;4967601;29;20035;-79
2021/11/22 12:48:39;;;;;;;23.60;19.15;;;;;;;;;;4962432;29;20051;-79
2021/11/22 12:51:09;;;;;;;27.05;20.58;;;;;;;;;;4967995;28;20039;-78
2021/11/22 12:53:35;;;;;;;24.65;19.27;;;;;;;;;;4951950;29;20124;-79
2021/11/22 12:56:02;;;;;;;24.42;18.63;;;;;;;;;;4950668;29;20099;-79
2021/11/22 12:58:31;;;;;;;24.70;19.77;;;;;;;;;;4958181;29;20020;-80
2021/11/22 13:01:02;;;;;;;23.08;19.25;;;;;;;;;;4969013;28;20078;-79
2021/11/22 13:03:29;;;;;;;28.13;22.02;;;;;;;;;;4952550;29;20035;-78
2021/11/22 13:05:59;;;;;;;25.85;18.80;;;;;;;;;;4976934;28;20046;-79
2021/11/22 13:08:39;;;;;;;24.08;19.17;;;;;;;;;;5025812;28;20483;-79
2021/11/22 13:11:24;;;;;;;24.23;19.02;;;;;;;;;;5024528;28;20069;-79
2021/11/22 13:14:09;;;;;;;25.00;19.33;;;;;;;;;;5026448;28;20046;-80
2021/11/22 13:16:36;;;;;;;23.52;18.25;;;;;;;;;;5024534;28;20034;-79
2021/11/22 13:19:13;;;;;;;23.73;19.25;;;;;;;;;;5024044;28;20022;-79
2021/11/22 13:21:49;;;;;;;22.60;18.80;;;;;;;;;;5028711;28;20026;-80
2021/11/22 13:24:23;;;;;;;25.63;19.30;;;;;;;;;;5028534;28;20053;-79
2021/11/22 13:26:50;;;;;;;22.73;18.40;;;;;;;;;;5009880;28;20031;-80
2021/11/22 13:29:29;;;;;;;23.35;18.50;;;;;;;;;;5033083;28;20033;-79
2021/11/22 13:31:59;;;;;;;21.10;17.85;;;;;;;;;;5028643;28;20072;-80
2021/11/22 13:34:30;;;;;;;19.98;17.05;;;;;;;;;;5027178;28;20541;-79
2021/11/22 13:36:59;;;;;;;20.45;17.20;;;;;;;;;;5028813;28;20018;-80
2021/11/22 13:39:27;;;;;;;23.10;18.70;;;;;;;;;;5028571;28;20061;-81
2021/11/22 13:53:24;;;;;;;;;;;;;;;;;;;;;
2021/11/22 14:03:50;;;;;;;24.30;20.50;;;;;;;;;;4919923;29;20017;-82
2021/11/22 14:10:13;;;;;;;22.33;17.63;;;;;;;;;;4852196;29;20061;-82
2021/11/22 14:45:57;;;;;;;21.88;18.50;;;;;;;;;;4924395;29;20036;-84
